createdAt,value
2024-02-02T00:00:39.055Z,6.43
2024-02-02T00:03:06.486Z,5.43
2024-02-02T00:05:33.922Z,5.30
2024-02-02T00:08:01.224Z,6.50
2024-02-02T00:10:28.486Z,6.50
2024-02-02T00:13:00.922Z,5.10
2024-02-02T00:15:28.345Z,5.07
2024-02-02T00:17:55.869Z,6.33
2024-02-02T00:20:23.579Z,5.47
2024-02-02T00:22:52.159Z,6.20
2024-02-02T00:25:20.385Z,6.50
2024-02-02T00:27:47.788Z,6.57
2024-02-02T00:30:15.269Z,6.03
2024-02-02T00:32:45.796Z,6.33
2024-02-02T00:35:14.276Z,6.67
2024-02-02T00:37:41.735Z,7.13
2024-02-02T00:40:10.170Z,7.27
2024-02-02T00:42:38.115Z,6.40
2024-02-02T00:45:05.831Z,7.77
2024-02-02T00:47:33.236Z,5.30
2024-02-02T00:50:01.201Z,5.70
2024-02-02T00:52:28.792Z,6.57
2024-02-02T00:54:56.045Z,6.27
2024-02-02T00:57:23.275Z,6.03
2024-02-02T00:59:51.593Z,6.17
2024-02-02T01:02:19.668Z,6.07
2024-02-02T01:04:47.010Z,5.73
2024-02-02T01:07:16.957Z,6.60
2024-02-02T01:09:44.994Z,6.43
2024-02-02T01:12:12.766Z,6.63
2024-02-02T01:14:40.782Z,7.07
2024-02-02T01:17:08.155Z,6.47
2024-02-02T01:19:37.395Z,8.70
2024-02-02T01:22:05.191Z,7.07
2024-02-02T01:24:32.516Z,6.70
2024-02-02T01:26:59.938Z,7.73
2024-02-02T01:29:27.268Z,6.87
2024-02-02T01:31:54.522Z,6.43
2024-02-02T01:34:22.296Z,8.47
2024-02-02T01:36:49.685Z,6.07
2024-02-02T01:39:17.815Z,6.53
2024-02-02T01:41:48.652Z,6.40
2024-02-02T01:44:15.889Z,5.70
2024-02-02T01:46:47.763Z,6.30
2024-02-02T01:49:15.273Z,6.00
2024-02-02T01:51:42.790Z,7.03
2024-02-02T01:54:13.297Z,6.17
2024-02-02T01:56:40.735Z,5.40
2024-02-02T01:59:09.124Z,7.80
2024-02-02T02:01:36.666Z,5.73
2024-02-02T02:04:04.809Z,5.70
2024-02-02T02:06:32.204Z,4.83
2024-02-02T02:08:59.542Z,5.47
2024-02-02T02:11:27.085Z,6.10
2024-02-02T02:13:55.173Z,5.73
2024-02-02T02:16:22.583Z,7.10
2024-02-02T02:18:55.994Z,5.50
2024-02-02T02:21:30.438Z,5.30
2024-02-02T02:23:58.282Z,6.27
2024-02-02T02:26:27.181Z,6.23
2024-02-02T02:28:54.380Z,5.70
2024-02-02T02:31:21.592Z,5.30
2024-02-02T02:33:48.972Z,9.13
2024-02-02T02:36:16.258Z,5.33
2024-02-02T02:38:44.984Z,6.07
2024-02-02T02:41:12.328Z,5.47
2024-02-02T02:43:39.781Z,6.17
2024-02-02T02:46:07.837Z,5.70
2024-02-02T02:48:37.734Z,5.43
2024-02-02T02:51:05.358Z,5.33
2024-02-02T02:53:32.535Z,4.80
2024-02-02T02:55:59.730Z,5.40
2024-02-02T02:58:26.882Z,5.27
2024-02-02T03:00:54.712Z,4.60
2024-02-02T03:03:22.078Z,6.83
2024-02-02T03:05:49.517Z,6.27
2024-02-02T03:08:16.889Z,5.17
2024-02-02T03:10:44.187Z,6.50
2024-02-02T03:13:11.510Z,4.97
2024-02-02T03:15:41.037Z,5.00
2024-02-02T03:18:09.100Z,6.17
2024-02-02T03:20:36.540Z,6.40
2024-02-02T03:23:04.525Z,7.93
2024-02-02T03:25:31.754Z,8.13
2024-02-02T03:27:59.685Z,5.23
2024-02-02T03:30:28.293Z,6.20
2024-02-02T03:32:55.861Z,6.83
2024-02-02T03:35:23.368Z,6.30
2024-02-02T03:37:50.552Z,5.87
2024-02-02T03:40:17.800Z,5.67
2024-02-02T03:42:44.991Z,6.00
2024-02-02T03:45:12.714Z,6.67
2024-02-02T03:47:39.912Z,6.27
2024-02-02T03:50:07.536Z,5.63
2024-02-02T03:52:34.733Z,6.40
2024-02-02T03:55:02.003Z,6.57
2024-02-02T03:57:29.439Z,6.73
2024-02-02T03:59:56.710Z,7.27
2024-02-02T04:02:23.947Z,5.87
2024-02-02T04:04:51.257Z,6.10
2024-02-02T04:07:18.664Z,6.70
2024-02-02T04:09:45.913Z,5.77
2024-02-02T04:12:13.129Z,5.77
2024-02-02T04:14:40.370Z,6.93
2024-02-02T04:17:07.549Z,6.53
2024-02-02T04:19:34.873Z,5.60
2024-02-02T04:22:02.122Z,6.00
2024-02-02T04:24:29.797Z,5.93
2024-02-02T04:26:57.072Z,6.27
2024-02-02T04:29:24.264Z,6.50
2024-02-02T04:31:51.592Z,6.60
2024-02-02T04:34:18.895Z,7.67
2024-02-02T04:36:46.087Z,7.47
2024-02-02T04:39:13.316Z,7.03
2024-02-02T04:41:40.615Z,6.83
2024-02-02T04:44:07.777Z,5.23
2024-02-02T04:46:34.912Z,5.17
2024-02-02T04:49:02.330Z,5.77
2024-02-02T04:51:30.343Z,5.87
2024-02-02T04:53:57.628Z,5.57
2024-02-02T04:56:24.776Z,6.17
2024-02-02T04:58:53.232Z,7.97
2024-02-02T05:01:20.818Z,6.57
2024-02-02T05:03:48.133Z,6.23
2024-02-02T05:06:18.251Z,6.10
2024-02-02T05:08:45.463Z,5.73
2024-02-02T05:11:13.768Z,5.10
2024-02-02T05:13:40.973Z,5.50
2024-02-02T05:16:10.535Z,5.73
2024-02-02T05:18:39.040Z,9.27
2024-02-02T05:21:06.350Z,7.00
2024-02-02T05:23:33.629Z,6.73
2024-02-02T05:26:00.808Z,6.00
2024-02-02T05:28:27.995Z,5.37
2024-02-02T05:30:55.142Z,5.30
2024-02-02T05:33:22.481Z,6.73
2024-02-02T05:35:50.237Z,5.63
2024-02-02T05:38:17.558Z,6.57
2024-02-02T05:40:44.801Z,5.00
2024-02-02T05:43:13.384Z,4.90
2024-02-02T05:45:40.690Z,4.80
2024-02-02T05:48:08.295Z,4.83
2024-02-02T05:50:35.621Z,4.50
2024-02-02T05:53:02.864Z,4.57
2024-02-02T05:55:30.383Z,4.80
2024-02-02T05:57:58.299Z,4.63
2024-02-02T06:00:26.074Z,5.07
2024-02-02T06:02:53.507Z,4.47
2024-02-02T06:05:20.811Z,5.60
2024-02-02T06:07:48.018Z,5.80
2024-02-02T06:10:15.280Z,5.37
2024-02-02T06:12:42.727Z,4.23
2024-02-02T06:15:10.237Z,4.10
2024-02-02T06:17:37.584Z,3.80
2024-02-02T06:20:05.607Z,3.70
2024-02-02T06:22:32.865Z,4.70
2024-02-02T06:25:00.051Z,4.53
2024-02-02T06:27:28.445Z,3.97
2024-02-02T06:29:55.745Z,3.27
2024-02-02T06:32:24.816Z,3.97
2024-02-02T06:34:57.158Z,4.23
2024-02-02T06:37:25.899Z,4.00
2024-02-02T06:39:53.638Z,3.40
2024-02-02T06:42:20.906Z,3.43
2024-02-02T06:44:49.776Z,4.13
2024-02-02T06:47:17.622Z,3.57
2024-02-02T06:49:45.462Z,3.73
2024-02-02T06:52:14.670Z,4.50
2024-02-02T06:54:45.394Z,3.87
2024-02-02T06:57:13.447Z,5.93
2024-02-02T06:59:43.860Z,3.73
2024-02-02T07:02:25.726Z,3.67
2024-02-02T07:04:53.119Z,5.33
2024-02-02T07:07:20.385Z,5.03
2024-02-02T07:09:56.684Z,6.30
2024-02-02T07:12:32.801Z,5.07
2024-02-02T07:15:03.174Z,6.57
2024-02-02T07:17:40.973Z,6.10
2024-02-02T07:20:13.573Z,5.63
2024-02-02T07:22:42.379Z,4.23
2024-02-02T07:25:12.917Z,4.00
2024-02-02T07:27:56.249Z,3.83
2024-02-02T07:30:35.213Z,3.77
2024-02-02T07:33:02.602Z,5.10
2024-02-02T07:35:36.765Z,3.60
2024-02-02T07:38:07.640Z,3.87
2024-02-02T07:41:11.618Z,3.70
2024-02-02T07:43:38.849Z,3.50
2024-02-02T07:46:10.330Z,3.27
2024-02-02T07:48:39.314Z,2.93
2024-02-02T07:51:07.692Z,3.30
2024-02-02T07:53:35.935Z,4.33
2024-02-02T07:56:03.200Z,3.77
2024-02-02T07:58:31.012Z,3.97
2024-02-02T08:00:59.187Z,5.77
2024-02-02T08:03:26.718Z,4.90
2024-02-02T08:05:54.073Z,4.73
2024-02-02T08:08:21.338Z,4.03
2024-02-02T08:10:48.693Z,4.37
2024-02-02T08:13:17.160Z,3.80
2024-02-02T08:15:44.595Z,3.80
2024-02-02T08:18:12.577Z,3.97
2024-02-02T08:20:39.918Z,3.17
2024-02-02T08:23:07.511Z,3.37
2024-02-02T08:25:35.240Z,3.93
2024-02-02T08:28:02.892Z,3.70
2024-02-02T08:30:30.366Z,3.37
2024-02-02T08:32:58.522Z,3.63
2024-02-02T08:35:26.795Z,3.47
2024-02-02T08:37:58.593Z,3.40
2024-02-02T08:40:53.050Z,3.50
2024-02-02T08:43:20.804Z,3.67
2024-02-02T08:46:11.776Z,3.27
2024-02-02T08:48:46.491Z,3.33
2024-02-02T08:51:27.232Z,3.00
2024-02-02T08:54:11.008Z,3.83
2024-02-02T08:56:38.202Z,3.20
2024-02-02T08:59:29.641Z,2.93
2024-02-02T09:01:56.910Z,3.20
2024-02-02T09:04:36.130Z,2.60
2024-02-02T09:07:05.252Z,4.53
2024-02-02T09:09:32.778Z,3.73
2024-02-02T09:12:00.152Z,5.10
2024-02-02T09:14:28.552Z,3.00
2024-02-02T09:16:55.755Z,3.30
2024-02-02T09:19:35.886Z,3.67
2024-02-02T09:22:10.704Z,3.30
2024-02-02T09:24:58.158Z,3.40
2024-02-02T09:27:36.767Z,3.30
2024-02-02T09:30:21.997Z,3.53
2024-02-02T09:32:49.608Z,3.67
2024-02-02T09:35:51.189Z,5.23
2024-02-02T09:38:18.442Z,3.50
2024-02-02T09:40:57.568Z,3.47
2024-02-02T09:44:02.122Z,3.63
2024-02-02T09:47:00.433Z,3.37
2024-02-02T09:49:57.493Z,3.73
2024-02-02T09:52:44.089Z,3.57
2024-02-02T09:55:39.448Z,4.00
2024-02-02T09:58:14.495Z,4.03
2024-02-02T10:01:21.010Z,3.47
2024-02-02T10:04:13.431Z,4.57
2024-02-02T10:06:59.671Z,3.30
2024-02-02T10:09:52.789Z,3.70
2024-02-02T10:12:37.938Z,3.67
2024-02-02T10:15:12.115Z,4.57
2024-02-02T10:18:10.348Z,4.50
2024-02-02T10:20:54.158Z,3.53
2024-02-02T10:23:30.302Z,3.50
2024-02-02T10:26:18.961Z,4.33
2024-02-02T10:28:59.209Z,4.87
2024-02-02T10:31:42.735Z,4.30
2024-02-02T10:34:36.072Z,5.00
2024-02-02T10:37:26.320Z,4.40
2024-02-02T10:40:30.963Z,4.10
2024-02-02T10:42:58.192Z,4.80
2024-02-02T10:45:33.302Z,4.00
2024-02-02T10:48:26.212Z,3.83
2024-02-02T10:51:11.242Z,4.93
2024-02-02T10:54:10.634Z,4.27
2024-02-02T10:56:56.932Z,5.27
2024-02-02T10:59:34.322Z,3.63
2024-02-02T11:02:35.098Z,3.70
2024-02-02T11:05:32.923Z,4.73
2024-02-02T11:08:04.876Z,4.40
2024-02-02T11:10:52.824Z,4.33
2024-02-02T11:13:45.819Z,4.70
2024-02-02T11:16:34.100Z,4.07
2024-02-02T11:19:17.511Z,4.23
2024-02-02T11:22:10.730Z,4.07
2024-02-02T11:25:05.014Z,4.80
2024-02-02T11:27:57.761Z,3.77
2024-02-02T11:30:30.389Z,4.33
2024-02-02T11:33:28.884Z,4.15
2024-02-02T11:36:19.713Z,4.10
2024-02-02T11:39:10.400Z,5.50
2024-02-02T11:41:40.503Z,4.33
2024-02-02T11:44:11.479Z,4.30
2024-02-02T11:46:39.317Z,4.37
2024-02-02T11:49:09.945Z,5.32
2024-02-02T11:51:39.208Z,5.00
2024-02-02T11:54:20.078Z,5.13
2024-02-02T11:56:51.240Z,4.67
2024-02-02T11:59:20.819Z,4.80
2024-02-02T12:02:12.824Z,4.77
2024-02-02T12:04:48.789Z,5.50
2024-02-02T12:07:19.273Z,4.47
2024-02-02T12:09:55.372Z,4.67
2024-02-02T12:12:46.948Z,3.97
2024-02-02T12:15:15.791Z,4.07
2024-02-02T12:17:43.816Z,3.73
2024-02-02T12:20:12.514Z,4.40
2024-02-02T12:22:43.652Z,3.43
2024-02-02T12:25:11.562Z,4.53
2024-02-02T12:27:39.050Z,4.23
2024-02-02T12:30:10.415Z,4.67
2024-02-02T12:32:37.881Z,3.70
2024-02-02T12:35:06.648Z,4.77
2024-02-02T12:37:51.761Z,3.93
2024-02-02T12:40:20.653Z,4.40
2024-02-02T12:42:49.203Z,4.50
2024-02-02T12:45:17.176Z,4.60
2024-02-02T12:47:51.197Z,4.70
2024-02-02T12:50:22.898Z,5.20
2024-02-02T12:52:51.986Z,4.87
2024-02-02T12:55:22.721Z,4.70
2024-02-02T12:57:50.145Z,4.80
2024-02-02T13:00:19.045Z,4.90
2024-02-02T13:02:48.809Z,5.03
2024-02-02T13:05:18.715Z,4.53
2024-02-02T13:07:52.011Z,3.80
2024-02-02T13:10:48.449Z,3.90
2024-02-02T13:13:18.423Z,3.63
2024-02-02T13:15:46.722Z,3.73
2024-02-02T13:18:17.833Z,4.47
2024-02-02T13:20:52.688Z,4.10
2024-02-02T13:23:29.346Z,3.80
2024-02-02T13:26:00.673Z,4.80
2024-02-02T13:28:42.246Z,4.67
2024-02-02T13:31:16.705Z,4.17
2024-02-02T13:33:56.173Z,4.97
2024-02-02T13:36:24.430Z,4.87
2024-02-02T13:38:56.149Z,5.17
2024-02-02T13:41:23.947Z,4.50
2024-02-02T13:44:04.000Z,5.00
2024-02-02T13:46:36.189Z,4.77
2024-02-02T13:49:06.526Z,4.53
2024-02-02T13:51:37.610Z,6.73
2024-02-02T13:54:09.454Z,4.27
2024-02-02T13:56:36.996Z,4.47
2024-02-02T13:59:04.401Z,5.50
2024-02-02T14:01:31.611Z,5.73
2024-02-02T14:03:59.860Z,5.60
2024-02-02T14:06:27.356Z,5.47
2024-02-02T14:08:55.509Z,5.33
2024-02-02T14:11:31.868Z,7.90
2024-02-02T14:13:59.270Z,5.23
2024-02-02T14:16:28.257Z,5.50
2024-02-02T14:19:03.660Z,5.63
2024-02-02T14:21:33.460Z,4.70
2024-02-02T14:24:10.717Z,5.97
2024-02-02T14:26:52.174Z,5.50
2024-02-02T14:29:20.440Z,5.93
2024-02-02T14:31:48.505Z,6.00
2024-02-02T14:34:15.964Z,6.63
2024-02-02T14:36:43.339Z,5.10
2024-02-02T14:39:14.388Z,5.23
2024-02-02T14:41:41.711Z,6.47
2024-02-02T14:44:09.931Z,6.03
2024-02-02T14:46:40.877Z,5.10
2024-02-02T14:49:10.153Z,4.80
2024-02-02T14:51:38.100Z,5.40
2024-02-02T14:54:06.627Z,5.27
2024-02-02T14:56:34.769Z,5.50
2024-02-02T14:59:13.897Z,5.67
2024-02-02T15:01:41.520Z,5.13
2024-02-02T15:04:09.267Z,6.80
2024-02-02T15:06:38.505Z,6.10
2024-02-02T15:09:13.663Z,4.73
2024-02-02T15:11:42.781Z,5.40
2024-02-02T15:14:11.010Z,5.23
2024-02-02T15:16:38.348Z,5.40
2024-02-02T15:19:06.179Z,7.63
2024-02-02T15:21:34.166Z,7.27
2024-02-02T15:24:01.720Z,6.07
2024-02-02T15:26:29.480Z,5.80
2024-02-02T15:28:56.622Z,6.50
2024-02-02T15:31:23.966Z,5.87
2024-02-02T15:33:51.516Z,4.70
2024-02-02T15:36:18.935Z,6.33
2024-02-02T15:39:06.078Z,7.63
2024-02-02T15:41:35.761Z,6.50
2024-02-02T15:44:03.339Z,6.27
2024-02-02T15:46:30.603Z,6.83
2024-02-02T15:48:57.938Z,6.10
2024-02-02T15:51:25.291Z,5.73
2024-02-02T15:53:52.977Z,6.60
2024-02-02T15:56:26.580Z,6.33
2024-02-02T15:58:53.968Z,6.80
2024-02-02T16:01:22.381Z,5.90
2024-02-02T16:03:49.736Z,5.60
2024-02-02T16:06:24.512Z,7.57
2024-02-02T16:08:51.720Z,5.60
2024-02-02T16:11:20.403Z,8.83
2024-02-02T16:13:48.874Z,6.13
2024-02-02T16:16:16.129Z,6.87
2024-02-02T16:18:43.409Z,7.60
2024-02-02T16:21:12.308Z,6.10
2024-02-02T16:23:39.532Z,7.37
2024-02-02T16:26:06.844Z,7.90
2024-02-02T16:28:34.151Z,8.07
2024-02-02T16:31:01.332Z,10.43
2024-02-02T16:33:28.638Z,6.73
2024-02-02T16:35:55.938Z,6.17
2024-02-02T16:38:23.307Z,6.23
2024-02-02T16:40:50.532Z,7.30
2024-02-02T16:43:17.767Z,6.40
2024-02-02T16:45:45.205Z,6.37
2024-02-02T16:48:12.698Z,6.90
2024-02-02T16:50:40.002Z,6.03
2024-02-02T16:53:08.172Z,8.73
2024-02-02T16:55:35.402Z,10.53
2024-02-02T16:58:04.322Z,6.27
2024-02-02T17:00:31.543Z,5.73
2024-02-02T17:02:58.923Z,6.57
2024-02-02T17:05:26.208Z,5.87
2024-02-02T17:07:53.491Z,6.93
2024-02-02T17:10:21.103Z,6.93
2024-02-02T17:12:48.456Z,5.90
2024-02-02T17:15:15.859Z,6.20
2024-02-02T17:17:43.757Z,4.63
2024-02-02T17:20:12.367Z,5.27
2024-02-02T17:22:43.996Z,7.00
2024-02-02T17:25:14.505Z,5.77
2024-02-02T17:27:42.357Z,5.40
2024-02-02T17:30:10.497Z,6.23
2024-02-02T17:32:39.855Z,5.50
2024-02-02T17:35:08.424Z,4.33
2024-02-02T17:37:36.026Z,4.60
2024-02-02T17:40:04.794Z,4.57
2024-02-02T17:42:32.083Z,4.43
2024-02-02T17:44:59.432Z,4.00
2024-02-02T17:47:26.952Z,5.70
2024-02-02T17:49:56.812Z,4.03
2024-02-02T17:52:26.378Z,3.73
2024-02-02T17:54:53.569Z,4.40
2024-02-02T17:57:20.827Z,3.80
2024-02-02T17:59:48.033Z,4.13
2024-02-02T18:02:15.665Z,4.20
2024-02-02T18:04:42.943Z,3.73
2024-02-02T18:07:12.830Z,4.87
2024-02-02T18:09:41.126Z,5.07
2024-02-02T18:12:12.991Z,5.93
2024-02-02T18:14:40.893Z,3.73
2024-02-02T18:17:08.409Z,4.67
2024-02-02T18:19:35.870Z,4.70
2024-02-02T18:22:03.343Z,3.77
2024-02-02T18:24:30.599Z,4.03
2024-02-02T18:26:57.943Z,3.93
2024-02-02T18:29:25.152Z,5.03
2024-02-02T18:31:52.581Z,4.30
2024-02-02T18:34:19.820Z,4.57
2024-02-02T18:36:47.480Z,4.63
2024-02-02T18:39:15.390Z,4.33
2024-02-02T18:41:42.745Z,4.77
2024-02-02T18:44:10.446Z,4.77
2024-02-02T18:46:37.756Z,3.93
2024-02-02T18:49:05.622Z,4.37
2024-02-02T18:51:33.259Z,4.37
2024-02-02T18:54:00.492Z,4.63
2024-02-02T18:56:27.762Z,4.90
2024-02-02T18:58:55.092Z,4.40
2024-02-02T19:01:26.897Z,5.10
2024-02-02T19:03:54.592Z,5.57
2024-02-02T19:06:22.493Z,5.00
2024-02-02T19:08:49.915Z,4.93
2024-02-02T19:11:19.030Z,5.40
2024-02-02T19:13:46.620Z,4.93
2024-02-02T19:16:25.473Z,5.07
2024-02-02T19:18:53.239Z,7.57
2024-02-02T19:21:22.266Z,5.60
2024-02-02T19:23:50.737Z,4.90
2024-02-02T19:26:19.024Z,5.73
2024-02-02T19:28:46.333Z,6.27
2024-02-02T19:31:23.337Z,6.20
2024-02-02T19:33:51.613Z,6.20
2024-02-02T19:36:21.099Z,6.63
2024-02-02T19:38:50.506Z,6.00
2024-02-02T19:41:23.376Z,6.57
2024-02-02T19:43:51.190Z,6.77
2024-02-02T19:46:22.870Z,6.37
2024-02-02T19:48:51.129Z,6.00
2024-02-02T19:51:20.367Z,5.00
2024-02-02T19:53:48.272Z,6.23
2024-02-02T19:56:15.750Z,6.90
2024-02-02T19:58:43.401Z,6.20
2024-02-02T20:01:19.119Z,5.87
2024-02-02T20:03:48.436Z,6.07
2024-02-02T20:06:17.648Z,6.33
2024-02-02T20:08:46.454Z,7.27
2024-02-02T20:11:21.899Z,6.20
2024-02-02T20:13:49.717Z,5.70
2024-02-02T20:16:18.942Z,7.37
2024-02-02T20:18:46.639Z,6.53
2024-02-02T20:21:15.630Z,7.13
2024-02-02T20:23:45.354Z,5.53
2024-02-02T20:26:19.155Z,6.97
2024-02-02T20:28:47.522Z,7.30
2024-02-02T20:31:15.079Z,7.37
2024-02-02T20:33:42.551Z,7.57
2024-02-02T20:36:10.226Z,6.60
2024-02-02T20:38:38.113Z,7.33
2024-02-02T20:41:06.337Z,7.10
2024-02-02T20:43:33.910Z,6.90
2024-02-02T20:46:01.298Z,7.03
2024-02-02T20:48:28.537Z,6.20
2024-02-02T20:50:56.158Z,7.00
2024-02-02T20:53:23.458Z,7.47
2024-02-02T20:55:50.625Z,7.00
2024-02-02T20:58:18.063Z,6.90
2024-02-02T21:00:45.382Z,6.83
2024-02-02T21:03:12.895Z,7.13
2024-02-02T21:05:41.409Z,8.67
2024-02-02T21:08:08.709Z,6.47
2024-02-02T21:10:36.236Z,8.17
2024-02-02T21:13:03.466Z,6.67
2024-02-02T21:15:35.356Z,7.60
2024-02-02T21:18:07.758Z,9.13
2024-02-02T21:20:43.747Z,7.63
2024-02-02T21:23:11.631Z,9.40
2024-02-02T21:25:46.485Z,8.30
2024-02-02T21:28:14.673Z,8.43
2024-02-02T21:30:43.978Z,7.97
2024-02-02T21:33:12.029Z,8.40
2024-02-02T21:35:40.781Z,8.90
2024-02-02T21:38:08.105Z,9.83
2024-02-02T21:40:35.477Z,10.43
2024-02-02T21:43:02.773Z,9.53
2024-02-02T21:45:33.327Z,8.57
2024-02-02T21:48:00.749Z,9.03
2024-02-02T21:50:28.120Z,12.83
2024-02-02T21:52:55.575Z,9.50
2024-02-02T21:55:22.930Z,10.73
2024-02-02T21:57:50.335Z,11.03
2024-02-02T22:00:17.964Z,10.63
2024-02-02T22:02:46.691Z,12.40
2024-02-02T22:05:14.297Z,11.10
2024-02-02T22:07:41.874Z,11.27
2024-02-02T22:10:09.686Z,9.03
2024-02-02T22:12:36.982Z,10.53
2024-02-02T22:15:04.637Z,10.57
2024-02-02T22:17:32.376Z,10.60
2024-02-02T22:20:00.119Z,9.30
2024-02-02T22:22:27.461Z,9.77
2024-02-02T22:24:55.340Z,8.80
2024-02-02T22:27:23.927Z,10.93
2024-02-02T22:29:51.900Z,8.50
2024-02-02T22:32:19.535Z,8.83
2024-02-02T22:34:47.590Z,9.90
2024-02-02T22:37:16.036Z,8.97
2024-02-02T22:39:43.476Z,10.17
2024-02-02T22:42:10.874Z,9.87
2024-02-02T22:44:38.631Z,9.47
2024-02-02T22:47:06.072Z,9.77
2024-02-02T22:49:34.675Z,7.57
2024-02-02T22:52:02.166Z,9.03
2024-02-02T22:54:29.373Z,7.47
2024-02-02T22:56:56.605Z,8.77
2024-02-02T22:59:24.333Z,8.20
2024-02-02T23:01:51.801Z,8.07
2024-02-02T23:04:19.365Z,7.67
2024-02-02T23:06:46.691Z,8.07
2024-02-02T23:09:14.029Z,8.40
2024-02-02T23:11:41.239Z,9.87
2024-02-02T23:14:08.512Z,8.47
2024-02-02T23:16:36.038Z,8.57
2024-02-02T23:19:03.872Z,9.13
2024-02-02T23:21:33.494Z,8.87
2024-02-02T23:24:00.734Z,8.67
2024-02-02T23:26:27.899Z,7.37
2024-02-02T23:28:55.340Z,7.90
2024-02-02T23:31:22.670Z,7.07
2024-02-02T23:33:49.952Z,8.50
2024-02-02T23:36:18.886Z,8.00
2024-02-02T23:38:46.323Z,7.60
2024-02-02T23:41:17.060Z,7.33
2024-02-02T23:43:45.090Z,7.07
2024-02-02T23:46:12.532Z,8.27
2024-02-02T23:48:39.948Z,7.63
2024-02-02T23:51:07.642Z,7.90
2024-02-02T23:53:34.901Z,8.27
2024-02-02T23:56:02.116Z,8.27
2024-02-02T23:58:29.354Z,8.03
